sensor_id;sensor_type;location;lat;lon;timestamp;temperature;humidity
10538;DHT22;5317;49.048;8.468;2022-10-17T00:00:30;18.00;83.60
10538;DHT22;5317;49.048;8.468;2022-10-17T00:02:57;18.00;83.50
10538;DHT22;5317;49.048;8.468;2022-10-17T00:05:26;18.00;83.50
10538;DHT22;5317;49.048;8.468;2022-10-17T00:07:53;17.90;83.60
10538;DHT22;5317;49.048;8.468;2022-10-17T00:10:21;17.90;83.60
10538;DHT22;5317;49.048;8.468;2022-10-17T00:12:51;17.90;83.30
10538;DHT22;5317;49.048;8.468;2022-10-17T00:15:20;17.90;83.30
10538;DHT22;5317;49.048;8.468;2022-10-17T00:17:47;17.90;83.30
10538;DHT22;5317;49.048;8.468;2022-10-17T00:20:16;17.90;83.40
10538;DHT22;5317;49.048;8.468;2022-10-17T00:22:43;17.90;83.40
10538;DHT22;5317;49.048;8.468;2022-10-17T00:25:11;17.90;83.20
10538;DHT22;5317;49.048;8.468;2022-10-17T00:27:41;17.80;83.00
10538;DHT22;5317;49.048;8.468;2022-10-17T00:30:12;17.70;83.40
10538;DHT22;5317;49.048;8.468;2022-10-17T00:32:41;17.70;83.60
10538;DHT22;5317;49.048;8.468;2022-10-17T00:35:09;17.70;83.50
10538;DHT22;5317;49.048;8.468;2022-10-17T00:37:36;17.70;83.70
10538;DHT22;5317;49.048;8.468;2022-10-17T00:40:05;17.70;83.80
10538;DHT22;5317;49.048;8.468;2022-10-17T00:42:33;17.60;83.90
10538;DHT22;5317;49.048;8.468;2022-10-17T00:45:06;17.60;83.50
10538;DHT22;5317;49.048;8.468;2022-10-17T00:47:47;17.60;83.50
10538;DHT22;5317;49.048;8.468;2022-10-17T00:50:19;17.60;83.70
10538;DHT22;5317;49.048;8.468;2022-10-17T00:52:48;17.60;83.50
10538;DHT22;5317;49.048;8.468;2022-10-17T00:55:19;17.60;83.20
10538;DHT22;5317;49.048;8.468;2022-10-17T00:57:49;17.60;83.10
10538;DHT22;5317;49.048;8.468;2022-10-17T01:00:20;17.50;83.00
10538;DHT22;5317;49.048;8.468;2022-10-17T01:02:48;17.50;83.00
10538;DHT22;5317;49.048;8.468;2022-10-17T01:05:16;17.50;83.00
10538;DHT22;5317;49.048;8.468;2022-10-17T01:07:45;17.50;83.10
10538;DHT22;5317;49.048;8.468;2022-10-17T01:10:14;17.40;83.00
10538;DHT22;5317;49.048;8.468;2022-10-17T01:12:59;17.40;83.00
10538;DHT22;5317;49.048;8.468;2022-10-17T01:15:47;17.40;83.00
10538;DHT22;5317;49.048;8.468;2022-10-17T01:18:31;17.40;83.30
10538;DHT22;5317;49.048;8.468;2022-10-17T01:21:32;17.40;83.30
10538;DHT22;5317;49.048;8.468;2022-10-17T01:24:32;17.40;83.20
10538;DHT22;5317;49.048;8.468;2022-10-17T01:30:52;17.30;83.00
10538;DHT22;5317;49.048;8.468;2022-10-17T01:33:42;17.30;83.40
10538;DHT22;5317;49.048;8.468;2022-10-17T01:36:26;17.20;83.40
10538;DHT22;5317;49.048;8.468;2022-10-17T01:39:11;17.20;83.60
10538;DHT22;5317;49.048;8.468;2022-10-17T01:41:48;17.20;83.50
10538;DHT22;5317;49.048;8.468;2022-10-17T01:44:21;17.20;83.60
10538;DHT22;5317;49.048;8.468;2022-10-17T01:47:00;17.20;83.30
10538;DHT22;5317;49.048;8.468;2022-10-17T01:49:34;17.20;83.30
10538;DHT22;5317;49.048;8.468;2022-10-17T01:52:08;17.20;83.30
10538;DHT22;5317;49.048;8.468;2022-10-17T01:54:40;17.10;83.20
10538;DHT22;5317;49.048;8.468;2022-10-17T01:57:16;17.10;83.20
10538;DHT22;5317;49.048;8.468;2022-10-17T01:59:51;17.10;83.10
10538;DHT22;5317;49.048;8.468;2022-10-17T02:02:22;17.10;83.30
10538;DHT22;5317;49.048;8.468;2022-10-17T02:04:52;17.10;83.30
10538;DHT22;5317;49.048;8.468;2022-10-17T02:07:21;17.00;83.40
10538;DHT22;5317;49.048;8.468;2022-10-17T02:09:50;17.00;83.30
10538;DHT22;5317;49.048;8.468;2022-10-17T02:12:41;17.00;83.30
10538;DHT22;5317;49.048;8.468;2022-10-17T02:15:41;17.00;83.50
10538;DHT22;5317;49.048;8.468;2022-10-17T02:18:34;17.00;83.40
10538;DHT22;5317;49.048;8.468;2022-10-17T02:21:22;17.00;83.40
10538;DHT22;5317;49.048;8.468;2022-10-17T02:24:04;16.90;84.00
10538;DHT22;5317;49.048;8.468;2022-10-17T02:26:46;16.90;83.10
10538;DHT22;5317;49.048;8.468;2022-10-17T02:29:20;16.90;83.20
10538;DHT22;5317;49.048;8.468;2022-10-17T02:31:55;16.90;83.10
10538;DHT22;5317;49.048;8.468;2022-10-17T02:34:32;16.90;83.00
10538;DHT22;5317;49.048;8.468;2022-10-17T02:37:06;16.90;82.90
10538;DHT22;5317;49.048;8.468;2022-10-17T02:39:38;16.90;83.10
10538;DHT22;5317;49.048;8.468;2022-10-17T02:42:09;16.90;83.20
10538;DHT22;5317;49.048;8.468;2022-10-17T02:44:43;16.90;83.20
10538;DHT22;5317;49.048;8.468;2022-10-17T02:47:19;16.80;83.00
10538;DHT22;5317;49.048;8.468;2022-10-17T02:49:52;16.80;83.10
10538;DHT22;5317;49.048;8.468;2022-10-17T02:52:27;16.80;83.10
10538;DHT22;5317;49.048;8.468;2022-10-17T02:55:08;16.80;83.00
10538;DHT22;5317;49.048;8.468;2022-10-17T02:57:45;16.70;83.00
10538;DHT22;5317;49.048;8.468;2022-10-17T03:00:17;16.70;83.20
10538;DHT22;5317;49.048;8.468;2022-10-17T03:02:57;16.70;83.70
10538;DHT22;5317;49.048;8.468;2022-10-17T03:05:27;16.70;83.60
10538;DHT22;5317;49.048;8.468;2022-10-17T03:07:55;16.70;83.70
10538;DHT22;5317;49.048;8.468;2022-10-17T03:10:22;16.70;83.90
10538;DHT22;5317;49.048;8.468;2022-10-17T03:12:50;16.60;83.80
10538;DHT22;5317;49.048;8.468;2022-10-17T03:15:17;16.60;83.80
10538;DHT22;5317;49.048;8.468;2022-10-17T03:17:44;16.60;83.60
10538;DHT22;5317;49.048;8.468;2022-10-17T03:20:11;16.60;83.40
10538;DHT22;5317;49.048;8.468;2022-10-17T03:22:39;16.60;83.10
10538;DHT22;5317;49.048;8.468;2022-10-17T03:25:09;16.60;83.20
10538;DHT22;5317;49.048;8.468;2022-10-17T03:27:36;16.60;83.20
10538;DHT22;5317;49.048;8.468;2022-10-17T03:30:04;16.60;83.20
10538;DHT22;5317;49.048;8.468;2022-10-17T03:32:32;16.60;83.10
10538;DHT22;5317;49.048;8.468;2022-10-17T03:35:00;16.50;83.10
10538;DHT22;5317;49.048;8.468;2022-10-17T03:37:27;16.50;83.20
10538;DHT22;5317;49.048;8.468;2022-10-17T03:39:55;16.50;83.10
10538;DHT22;5317;49.048;8.468;2022-10-17T03:42:23;16.50;83.30
10538;DHT22;5317;49.048;8.468;2022-10-17T03:44:50;16.50;83.20
10538;DHT22;5317;49.048;8.468;2022-10-17T03:47:17;16.50;83.00
10538;DHT22;5317;49.048;8.468;2022-10-17T03:49:44;16.50;82.90
10538;DHT22;5317;49.048;8.468;2022-10-17T03:52:11;16.50;82.90
10538;DHT22;5317;49.048;8.468;2022-10-17T03:54:41;16.40;82.90
10538;DHT22;5317;49.048;8.468;2022-10-17T03:57:09;16.50;83.00
10538;DHT22;5317;49.048;8.468;2022-10-17T03:59:39;16.40;82.90
10538;DHT22;5317;49.048;8.468;2022-10-17T04:02:06;16.40;82.90
10538;DHT22;5317;49.048;8.468;2022-10-17T04:04:33;16.40;83.80
10538;DHT22;5317;49.048;8.468;2022-10-17T04:07:00;16.40;83.10
10538;DHT22;5317;49.048;8.468;2022-10-17T04:09:28;16.40;83.00
10538;DHT22;5317;49.048;8.468;2022-10-17T04:11:55;16.30;82.70
10538;DHT22;5317;49.048;8.468;2022-10-17T04:14:23;16.40;82.90
10538;DHT22;5317;49.048;8.468;2022-10-17T04:16:50;16.30;82.60
10538;DHT22;5317;49.048;8.468;2022-10-17T04:19:18;16.30;82.50
10538;DHT22;5317;49.048;8.468;2022-10-17T04:21:45;16.30;82.60
10538;DHT22;5317;49.048;8.468;2022-10-17T04:24:15;16.30;82.50
10538;DHT22;5317;49.048;8.468;2022-10-17T04:26:43;16.30;82.50
10538;DHT22;5317;49.048;8.468;2022-10-17T04:29:10;16.20;82.70
10538;DHT22;5317;49.048;8.468;2022-10-17T04:31:39;16.30;82.80
10538;DHT22;5317;49.048;8.468;2022-10-17T04:34:06;16.20;82.40
10538;DHT22;5317;49.048;8.468;2022-10-17T04:36:33;16.20;82.70
10538;DHT22;5317;49.048;8.468;2022-10-17T04:39:02;16.20;82.70
10538;DHT22;5317;49.048;8.468;2022-10-17T04:41:30;16.20;82.60
10538;DHT22;5317;49.048;8.468;2022-10-17T04:43:58;16.20;82.60
10538;DHT22;5317;49.048;8.468;2022-10-17T04:46:25;16.20;82.70
10538;DHT22;5317;49.048;8.468;2022-10-17T04:48:55;16.20;82.80
10538;DHT22;5317;49.048;8.468;2022-10-17T04:51:22;16.20;82.70
10538;DHT22;5317;49.048;8.468;2022-10-17T04:53:49;16.20;83.00
10538;DHT22;5317;49.048;8.468;2022-10-17T04:56:18;16.20;83.00
10538;DHT22;5317;49.048;8.468;2022-10-17T04:58:48;16.20;83.10
10538;DHT22;5317;49.048;8.468;2022-10-17T05:01:18;16.20;83.10
10538;DHT22;5317;49.048;8.468;2022-10-17T05:03:47;16.20;83.20
10538;DHT22;5317;49.048;8.468;2022-10-17T05:06:17;16.20;83.30
10538;DHT22;5317;49.048;8.468;2022-10-17T05:08:52;16.10;83.20
10538;DHT22;5317;49.048;8.468;2022-10-17T05:11:21;16.20;83.20
10538;DHT22;5317;49.048;8.468;2022-10-17T05:13:50;16.10;83.00
10538;DHT22;5317;49.048;8.468;2022-10-17T05:16:19;16.10;82.90
10538;DHT22;5317;49.048;8.468;2022-10-17T05:18:50;16.10;83.10
10538;DHT22;5317;49.048;8.468;2022-10-17T05:21:20;16.10;83.00
10538;DHT22;5317;49.048;8.468;2022-10-17T05:23:49;16.10;83.00
10538;DHT22;5317;49.048;8.468;2022-10-17T05:26:16;16.10;83.00
10538;DHT22;5317;49.048;8.468;2022-10-17T05:28:44;16.10;82.90
10538;DHT22;5317;49.048;8.468;2022-10-17T05:31:12;16.10;82.70
10538;DHT22;5317;49.048;8.468;2022-10-17T05:33:39;16.10;83.00
10538;DHT22;5317;49.048;8.468;2022-10-17T05:36:07;16.00;83.20
10538;DHT22;5317;49.048;8.468;2022-10-17T05:38:37;16.00;83.10
10538;DHT22;5317;49.048;8.468;2022-10-17T05:41:04;16.00;83.30
10538;DHT22;5317;49.048;8.468;2022-10-17T05:43:32;16.00;83.20
10538;DHT22;5317;49.048;8.468;2022-10-17T05:46:02;16.00;83.90
10538;DHT22;5317;49.048;8.468;2022-10-17T05:48:31;15.90;83.80
10538;DHT22;5317;49.048;8.468;2022-10-17T05:50:59;16.00;83.90
10538;DHT22;5317;49.048;8.468;2022-10-17T05:53:31;16.00;83.60
10538;DHT22;5317;49.048;8.468;2022-10-17T05:56:02;16.00;83.70
10538;DHT22;5317;49.048;8.468;2022-10-17T05:58:33;16.00;83.90
10538;DHT22;5317;49.048;8.468;2022-10-17T06:01:03;15.90;83.30
10538;DHT22;5317;49.048;8.468;2022-10-17T06:03:32;16.00;83.60
10538;DHT22;5317;49.048;8.468;2022-10-17T06:06:03;16.00;83.50
10538;DHT22;5317;49.048;8.468;2022-10-17T06:08:31;16.00;83.70
10538;DHT22;5317;49.048;8.468;2022-10-17T06:10:59;15.90;83.80
10538;DHT22;5317;49.048;8.468;2022-10-17T06:13:27;15.90;83.70
10538;DHT22;5317;49.048;8.468;2022-10-17T06:15:55;15.90;83.70
10538;DHT22;5317;49.048;8.468;2022-10-17T06:18:22;16.00;83.80
10538;DHT22;5317;49.048;8.468;2022-10-17T06:20:51;16.00;83.80
10538;DHT22;5317;49.048;8.468;2022-10-17T06:23:18;16.00;83.50
10538;DHT22;5317;49.048;8.468;2022-10-17T06:25:45;16.00;83.50
10538;DHT22;5317;49.048;8.468;2022-10-17T06:28:14;16.10;83.60
10538;DHT22;5317;49.048;8.468;2022-10-17T06:30:41;16.10;83.60
10538;DHT22;5317;49.048;8.468;2022-10-17T06:33:08;16.10;83.60
10538;DHT22;5317;49.048;8.468;2022-10-17T06:35:35;16.10;83.60
10538;DHT22;5317;49.048;8.468;2022-10-17T06:38:02;16.10;83.70
10538;DHT22;5317;49.048;8.468;2022-10-17T06:40:30;16.10;83.70
10538;DHT22;5317;49.048;8.468;2022-10-17T06:42:57;16.10;83.90
10538;DHT22;5317;49.048;8.468;2022-10-17T06:45:26;16.20;84.10
10538;DHT22;5317;49.048;8.468;2022-10-17T06:47:53;16.20;84.20
10538;DHT22;5317;49.048;8.468;2022-10-17T06:50:21;16.20;84.40
10538;DHT22;5317;49.048;8.468;2022-10-17T06:52:50;16.30;84.50
10538;DHT22;5317;49.048;8.468;2022-10-17T06:55:17;16.30;84.70
10538;DHT22;5317;49.048;8.468;2022-10-17T06:57:44;16.40;85.10
10538;DHT22;5317;49.048;8.468;2022-10-17T07:00:12;16.50;85.40
10538;DHT22;5317;49.048;8.468;2022-10-17T07:02:41;16.50;85.20
10538;DHT22;5317;49.048;8.468;2022-10-17T07:05:09;16.60;86.10
10538;DHT22;5317;49.048;8.468;2022-10-17T07:07:36;16.70;86.00
10538;DHT22;5317;49.048;8.468;2022-10-17T07:10:04;16.80;86.00
10538;DHT22;5317;49.048;8.468;2022-10-17T07:12:33;16.80;86.20
10538;DHT22;5317;49.048;8.468;2022-10-17T07:15:01;16.90;86.10
10538;DHT22;5317;49.048;8.468;2022-10-17T07:17:29;17.00;86.10
10538;DHT22;5317;49.048;8.468;2022-10-17T07:19:57;17.10;86.10
10538;DHT22;5317;49.048;8.468;2022-10-17T07:22:25;17.20;86.60
10538;DHT22;5317;49.048;8.468;2022-10-17T07:24:52;17.30;86.50
10538;DHT22;5317;49.048;8.468;2022-10-17T07:27:19;17.40;86.60
10538;DHT22;5317;49.048;8.468;2022-10-17T07:29:46;17.50;86.50
10538;DHT22;5317;49.048;8.468;2022-10-17T07:32:14;17.50;86.40
10538;DHT22;5317;49.048;8.468;2022-10-17T07:34:41;17.60;86.60
10538;DHT22;5317;49.048;8.468;2022-10-17T07:37:12;17.70;86.60
10538;DHT22;5317;49.048;8.468;2022-10-17T07:39:39;17.80;86.50
10538;DHT22;5317;49.048;8.468;2022-10-17T07:42:07;17.90;86.50
10538;DHT22;5317;49.048;8.468;2022-10-17T07:44:34;18.00;86.30
10538;DHT22;5317;49.048;8.468;2022-10-17T07:47:01;18.20;86.30
10538;DHT22;5317;49.048;8.468;2022-10-17T07:49:29;18.30;85.70
10538;DHT22;5317;49.048;8.468;2022-10-17T07:51:56;18.40;85.70
10538;DHT22;5317;49.048;8.468;2022-10-17T07:54:25;18.50;85.20
10538;DHT22;5317;49.048;8.468;2022-10-17T07:56:53;18.60;85.30
10538;DHT22;5317;49.048;8.468;2022-10-17T07:59:20;18.80;85.20
10538;DHT22;5317;49.048;8.468;2022-10-17T08:01:49;18.90;85.30
10538;DHT22;5317;49.048;8.468;2022-10-17T08:04:16;19.10;85.20
10538;DHT22;5317;49.048;8.468;2022-10-17T08:06:44;19.20;84.80
10538;DHT22;5317;49.048;8.468;2022-10-17T08:09:11;19.30;84.70
10538;DHT22;5317;49.048;8.468;2022-10-17T08:11:41;19.40;84.40
10538;DHT22;5317;49.048;8.468;2022-10-17T08:14:09;19.50;83.90
10538;DHT22;5317;49.048;8.468;2022-10-17T08:16:36;19.70;83.80
10538;DHT22;5317;49.048;8.468;2022-10-17T08:19:04;19.80;83.70
10538;DHT22;5317;49.048;8.468;2022-10-17T08:21:33;19.90;83.30
10538;DHT22;5317;49.048;8.468;2022-10-17T08:24:01;20.10;83.00
10538;DHT22;5317;49.048;8.468;2022-10-17T08:26:28;20.20;82.60
10538;DHT22;5317;49.048;8.468;2022-10-17T08:28:57;20.40;82.80
10538;DHT22;5317;49.048;8.468;2022-10-17T08:31:25;20.50;82.20
10538;DHT22;5317;49.048;8.468;2022-10-17T08:33:53;20.70;82.10
10538;DHT22;5317;49.048;8.468;2022-10-17T08:36:20;20.80;81.70
10538;DHT22;5317;49.048;8.468;2022-10-17T08:38:50;21.00;81.40
10538;DHT22;5317;49.048;8.468;2022-10-17T08:41:35;21.10;80.80
10538;DHT22;5317;49.048;8.468;2022-10-17T08:44:28;21.20;79.10
10538;DHT22;5317;49.048;8.468;2022-10-17T08:47:09;21.30;79.50
10538;DHT22;5317;49.048;8.468;2022-10-17T08:49:44;21.50;79.30
10538;DHT22;5317;49.048;8.468;2022-10-17T08:52:27;21.60;77.60
10538;DHT22;5317;49.048;8.468;2022-10-17T08:55:00;21.60;77.60
10538;DHT22;5317;49.048;8.468;2022-10-17T08:57:27;21.70;78.10
10538;DHT22;5317;49.048;8.468;2022-10-17T08:59:56;21.90;77.50
10538;DHT22;5317;49.048;8.468;2022-10-17T09:02:39;21.90;76.10
10538;DHT22;5317;49.048;8.468;2022-10-17T09:05:34;22.00;76.30
10538;DHT22;5317;49.048;8.468;2022-10-17T09:08:19;22.10;74.10
10538;DHT22;5317;49.048;8.468;2022-10-17T09:10:59;22.10;74.90
10538;DHT22;5317;49.048;8.468;2022-10-17T09:13:49;22.20;75.20
10538;DHT22;5317;49.048;8.468;2022-10-17T09:16:49;22.30;74.30
10538;DHT22;5317;49.048;8.468;2022-10-17T09:19:31;22.40;73.80
10538;DHT22;5317;49.048;8.468;2022-10-17T09:22:04;22.50;74.80
10538;DHT22;5317;49.048;8.468;2022-10-17T09:24:40;22.60;74.10
10538;DHT22;5317;49.048;8.468;2022-10-17T09:27:19;22.80;73.90
10538;DHT22;5317;49.048;8.468;2022-10-17T09:29:53;22.90;73.30
10538;DHT22;5317;49.048;8.468;2022-10-17T09:32:38;22.90;73.50
10538;DHT22;5317;49.048;8.468;2022-10-17T09:35:11;23.10;72.90
10538;DHT22;5317;49.048;8.468;2022-10-17T09:37:40;23.10;72.60
10538;DHT22;5317;49.048;8.468;2022-10-17T09:40:17;23.20;72.30
10538;DHT22;5317;49.048;8.468;2022-10-17T09:42:48;23.20;71.00
10538;DHT22;5317;49.048;8.468;2022-10-17T09:45:20;23.20;71.80
10538;DHT22;5317;49.048;8.468;2022-10-17T09:47:56;23.30;71.40
10538;DHT22;5317;49.048;8.468;2022-10-17T09:50:35;23.40;70.70
10538;DHT22;5317;49.048;8.468;2022-10-17T09:53:11;23.40;70.20
10538;DHT22;5317;49.048;8.468;2022-10-17T09:55:42;23.30;69.50
10538;DHT22;5317;49.048;8.468;2022-10-17T09:58:13;23.30;69.70
10538;DHT22;5317;49.048;8.468;2022-10-17T10:00:45;23.40;70.60
10538;DHT22;5317;49.048;8.468;2022-10-17T10:03:19;23.50;70.70
10538;DHT22;5317;49.048;8.468;2022-10-17T10:05:59;23.70;68.90
10538;DHT22;5317;49.048;8.468;2022-10-17T10:08:30;23.70;69.20
10538;DHT22;5317;49.048;8.468;2022-10-17T10:11:02;23.80;69.20
10538;DHT22;5317;49.048;8.468;2022-10-17T10:13:32;23.90;69.50
10538;DHT22;5317;49.048;8.468;2022-10-17T10:16:15;24.10;67.90
10538;DHT22;5317;49.048;8.468;2022-10-17T10:18:47;24.30;68.00
10538;DHT22;5317;49.048;8.468;2022-10-17T10:21:16;24.60;67.90
10538;DHT22;5317;49.048;8.468;2022-10-17T10:24:02;24.70;67.60
10538;DHT22;5317;49.048;8.468;2022-10-17T10:26:36;24.90;67.20
10538;DHT22;5317;49.048;8.468;2022-10-17T10:29:17;25.10;66.60
10538;DHT22;5317;49.048;8.468;2022-10-17T10:31:48;25.20;66.30
10538;DHT22;5317;49.048;8.468;2022-10-17T10:34:21;25.40;65.20
10538;DHT22;5317;49.048;8.468;2022-10-17T10:36:56;25.60;65.40
10538;DHT22;5317;49.048;8.468;2022-10-17T10:39:43;25.70;64.50
10538;DHT22;5317;49.048;8.468;2022-10-17T10:42:23;25.80;62.70
10538;DHT22;5317;49.048;8.468;2022-10-17T10:44:57;26.10;63.50
10538;DHT22;5317;49.048;8.468;2022-10-17T10:47:28;26.30;62.30
10538;DHT22;5317;49.048;8.468;2022-10-17T10:50:24;26.40;61.50
10538;DHT22;5317;49.048;8.468;2022-10-17T10:53:06;26.50;59.90
10538;DHT22;5317;49.048;8.468;2022-10-17T10:55:47;26.60;59.90
10538;DHT22;5317;49.048;8.468;2022-10-17T10:58:36;26.60;58.80
10538;DHT22;5317;49.048;8.468;2022-10-17T11:01:14;26.60;58.50
10538;DHT22;5317;49.048;8.468;2022-10-17T11:03:55;26.70;59.50
10538;DHT22;5317;49.048;8.468;2022-10-17T11:06:35;26.80;58.60
10538;DHT22;5317;49.048;8.468;2022-10-17T11:09:14;26.80;57.80
10538;DHT22;5317;49.048;8.468;2022-10-17T11:11:56;27.00;58.40
10538;DHT22;5317;49.048;8.468;2022-10-17T11:14:42;27.20;58.20
10538;DHT22;5317;49.048;8.468;2022-10-17T11:17:21;27.50;57.70
10538;DHT22;5317;49.048;8.468;2022-10-17T11:20:05;27.60;56.80
10538;DHT22;5317;49.048;8.468;2022-10-17T11:22:43;27.60;55.00
10538;DHT22;5317;49.048;8.468;2022-10-17T11:25:24;27.60;56.20
10538;DHT22;5317;49.048;8.468;2022-10-17T11:27:58;27.70;55.80
10538;DHT22;5317;49.048;8.468;2022-10-17T11:30:31;27.80;55.70
10538;DHT22;5317;49.048;8.468;2022-10-17T11:33:06;28.00;55.60
10538;DHT22;5317;49.048;8.468;2022-10-17T11:35:39;28.20;54.30
10538;DHT22;5317;49.048;8.468;2022-10-17T11:38:17;28.10;54.70
10538;DHT22;5317;49.048;8.468;2022-10-17T11:40:49;28.30;54.40
10538;DHT22;5317;49.048;8.468;2022-10-17T11:43:24;28.50;53.70
10538;DHT22;5317;49.048;8.468;2022-10-17T11:46:01;28.70;54.00
10538;DHT22;5317;49.048;8.468;2022-10-17T11:48:40;28.80;52.70
10538;DHT22;5317;49.048;8.468;2022-10-17T11:51:13;28.80;51.90
10538;DHT22;5317;49.048;8.468;2022-10-17T11:53:49;28.70;52.60
10538;DHT22;5317;49.048;8.468;2022-10-17T11:56:27;28.80;52.70
10538;DHT22;5317;49.048;8.468;2022-10-17T11:59:13;28.90;52.50
10538;DHT22;5317;49.048;8.468;2022-10-17T12:02:03;28.90;51.30
10538;DHT22;5317;49.048;8.468;2022-10-17T12:04:47;29.00;53.00
10538;DHT22;5317;49.048;8.468;2022-10-17T12:07:29;29.40;51.70
10538;DHT22;5317;49.048;8.468;2022-10-17T12:10:18;29.50;51.60
10538;DHT22;5317;49.048;8.468;2022-10-17T12:12:54;29.70;51.00
10538;DHT22;5317;49.048;8.468;2022-10-17T12:15:29;29.70;50.10
10538;DHT22;5317;49.048;8.468;2022-10-17T12:17:59;29.60;50.70
10538;DHT22;5317;49.048;8.468;2022-10-17T12:20:33;29.60;50.20
10538;DHT22;5317;49.048;8.468;2022-10-17T12:25:55;29.40;50.70
10538;DHT22;5317;49.048;8.468;2022-10-17T12:28:30;29.50;51.00
10538;DHT22;5317;49.048;8.468;2022-10-17T12:31:04;29.90;50.60
10538;DHT22;5317;49.048;8.468;2022-10-17T12:33:39;30.30;50.70
10538;DHT22;5317;49.048;8.468;2022-10-17T12:36:45;30.60;49.80
10538;DHT22;5317;49.048;8.468;2022-10-17T12:39:48;30.80;48.10
10538;DHT22;5317;49.048;8.468;2022-10-17T12:42:47;31.00;47.90
10538;DHT22;5317;49.048;8.468;2022-10-17T12:45:44;30.70;47.70
10538;DHT22;5317;49.048;8.468;2022-10-17T12:52:26;30.70;47.70
10538;DHT22;5317;49.048;8.468;2022-10-17T12:55:16;30.70;47.10
10538;DHT22;5317;49.048;8.468;2022-10-17T12:57:52;30.80;48.40
10538;DHT22;5317;49.048;8.468;2022-10-17T13:00:28;31.00;46.60
10538;DHT22;5317;49.048;8.468;2022-10-17T13:03:04;31.30;47.70
10538;DHT22;5317;49.048;8.468;2022-10-17T13:05:41;31.70;46.90
10538;DHT22;5317;49.048;8.468;2022-10-17T13:08:16;31.90;45.50
10538;DHT22;5317;49.048;8.468;2022-10-17T13:10:49;32.00;44.40
10538;DHT22;5317;49.048;8.468;2022-10-17T13:13:21;32.40;44.70
10538;DHT22;5317;49.048;8.468;2022-10-17T13:15:53;32.80;43.50
10538;DHT22;5317;49.048;8.468;2022-10-17T13:18:23;33.70;43.10
10538;DHT22;5317;49.048;8.468;2022-10-17T13:20:58;34.60;41.50
10538;DHT22;5317;49.048;8.468;2022-10-17T13:23:33;36.20;40.00
10538;DHT22;5317;49.048;8.468;2022-10-17T13:26:04;38.10;38.50
10538;DHT22;5317;49.048;8.468;2022-10-17T13:28:39;40.10;36.50
10538;DHT22;5317;49.048;8.468;2022-10-17T13:31:26;41.80;33.40
10538;DHT22;5317;49.048;8.468;2022-10-17T13:33:57;43.10;30.00
10538;DHT22;5317;49.048;8.468;2022-10-17T13:36:27;44.10;30.00
10538;DHT22;5317;49.048;8.468;2022-10-17T13:38:57;44.40;29.80
10538;DHT22;5317;49.048;8.468;2022-10-17T13:41:31;45.40;29.50
10538;DHT22;5317;49.048;8.468;2022-10-17T13:44:03;46.40;28.70
10538;DHT22;5317;49.048;8.468;2022-10-17T13:46:38;46.50;26.30
10538;DHT22;5317;49.048;8.468;2022-10-17T13:49:14;46.30;27.50
10538;DHT22;5317;49.048;8.468;2022-10-17T13:51:47;46.70;26.50
10538;DHT22;5317;49.048;8.468;2022-10-17T13:54:33;47.50;27.30
10538;DHT22;5317;49.048;8.468;2022-10-17T13:57:05;48.30;25.20
10538;DHT22;5317;49.048;8.468;2022-10-17T13:59:45;48.80;25.80
10538;DHT22;5317;49.048;8.468;2022-10-17T14:02:16;49.00;24.90
10538;DHT22;5317;49.048;8.468;2022-10-17T14:04:46;48.30;25.20
10538;DHT22;5317;49.048;8.468;2022-10-17T14:07:23;48.30;25.30
10538;DHT22;5317;49.048;8.468;2022-10-17T14:09:56;47.80;24.20
10538;DHT22;5317;49.048;8.468;2022-10-17T14:12:23;47.20;24.60
10538;DHT22;5317;49.048;8.468;2022-10-17T14:14:53;46.20;25.70
10538;DHT22;5317;49.048;8.468;2022-10-17T14:17:23;46.20;26.50
10538;DHT22;5317;49.048;8.468;2022-10-17T14:19:53;46.70;25.70
10538;DHT22;5317;49.048;8.468;2022-10-17T14:22:28;47.20;26.20
10538;DHT22;5317;49.048;8.468;2022-10-17T14:25:00;44.60;26.10
10538;DHT22;5317;49.048;8.468;2022-10-17T14:27:29;43.00;27.50
10538;DHT22;5317;49.048;8.468;2022-10-17T14:30:02;42.90;27.90
10538;DHT22;5317;49.048;8.468;2022-10-17T14:32:34;43.30;27.70
10538;DHT22;5317;49.048;8.468;2022-10-17T14:35:05;43.70;27.30
10538;DHT22;5317;49.048;8.468;2022-10-17T14:37:40;43.70;27.60
10538;DHT22;5317;49.048;8.468;2022-10-17T14:40:15;44.40;27.20
10538;DHT22;5317;49.048;8.468;2022-10-17T14:42:48;44.90;26.90
10538;DHT22;5317;49.048;8.468;2022-10-17T14:45:28;44.50;27.30
10538;DHT22;5317;49.048;8.468;2022-10-17T14:48:02;42.70;27.40
10538;DHT22;5317;49.048;8.468;2022-10-17T14:50:32;40.90;29.10
10538;DHT22;5317;49.048;8.468;2022-10-17T14:53:03;39.60;30.70
10538;DHT22;5317;49.048;8.468;2022-10-17T14:55:33;39.20;31.50
10538;DHT22;5317;49.048;8.468;2022-10-17T15:00:43;37.10;33.60
10538;DHT22;5317;49.048;8.468;2022-10-17T15:03:10;36.20;34.80
10538;DHT22;5317;49.048;8.468;2022-10-17T15:05:38;35.40;36.60
10538;DHT22;5317;49.048;8.468;2022-10-17T15:08:07;34.70;36.90
10538;DHT22;5317;49.048;8.468;2022-10-17T15:10:38;33.80;37.70
10538;DHT22;5317;49.048;8.468;2022-10-17T15:13:07;33.30;38.60
10538;DHT22;5317;49.048;8.468;2022-10-17T15:15:35;32.80;39.40
10538;DHT22;5317;49.048;8.468;2022-10-17T15:18:05;32.30;40.50
10538;DHT22;5317;49.048;8.468;2022-10-17T15:20:33;32.00;41.40
10538;DHT22;5317;49.048;8.468;2022-10-17T15:23:02;31.70;41.90
10538;DHT22;5317;49.048;8.468;2022-10-17T15:25:30;31.40;42.20
10538;DHT22;5317;49.048;8.468;2022-10-17T15:27:58;31.20;43.40
10538;DHT22;5317;49.048;8.468;2022-10-17T15:30:28;31.40;43.40
10538;DHT22;5317;49.048;8.468;2022-10-17T15:32:57;31.40;43.60
10538;DHT22;5317;49.048;8.468;2022-10-17T15:35:26;31.20;43.60
10538;DHT22;5317;49.048;8.468;2022-10-17T15:37:54;31.20;43.90
10538;DHT22;5317;49.048;8.468;2022-10-17T15:40:25;30.90;44.80
10538;DHT22;5317;49.048;8.468;2022-10-17T15:42:54;30.70;45.00
10538;DHT22;5317;49.048;8.468;2022-10-17T15:45:22;30.60;45.60
10538;DHT22;5317;49.048;8.468;2022-10-17T15:47:51;30.40;46.00
10538;DHT22;5317;49.048;8.468;2022-10-17T15:50:21;30.30;46.50
10538;DHT22;5317;49.048;8.468;2022-10-17T15:52:50;30.10;46.70
10538;DHT22;5317;49.048;8.468;2022-10-17T15:55:20;30.00;47.20
10538;DHT22;5317;49.048;8.468;2022-10-17T15:57:48;29.80;47.40
10538;DHT22;5317;49.048;8.468;2022-10-17T16:00:18;29.60;47.90
10538;DHT22;5317;49.048;8.468;2022-10-17T16:02:46;29.50;48.50
10538;DHT22;5317;49.048;8.468;2022-10-17T16:05:17;29.30;48.90
10538;DHT22;5317;49.048;8.468;2022-10-17T16:07:52;29.20;49.40
10538;DHT22;5317;49.048;8.468;2022-10-17T16:10:20;28.90;49.60
10538;DHT22;5317;49.048;8.468;2022-10-17T16:12:50;28.70;50.10
10538;DHT22;5317;49.048;8.468;2022-10-17T16:15:19;28.60;50.80
10538;DHT22;5317;49.048;8.468;2022-10-17T16:17:48;28.40;51.30
10538;DHT22;5317;49.048;8.468;2022-10-17T16:20:15;28.20;52.10
10538;DHT22;5317;49.048;8.468;2022-10-17T16:22:44;28.00;52.90
10538;DHT22;5317;49.048;8.468;2022-10-17T16:25:19;27.90;53.90
10538;DHT22;5317;49.048;8.468;2022-10-17T16:27:49;27.60;54.70
10538;DHT22;5317;49.048;8.468;2022-10-17T16:30:18;27.40;55.00
10538;DHT22;5317;49.048;8.468;2022-10-17T16:32:46;27.20;55.40